بلغراد, Serbia

09:19 PM CET on دسمبر 10, 2016 (GMT +0100)
Netiks Zvezdara | | Change Station

Elev 545 ft 44.80 °N, 20.49 °E | Updated 4 minutes ago

صافية
صافية
41.9 °F
Feels Like 42 °F
N
0.0
ريح متغير ريح from شمال
Gusts 0.0 mph

هذا اليوم
High -- | Low -- °F
--% Chance of Precip.
Yesterday
High -- | Low -- °F
Precip. -- في
الضغط 30.24 في
وضوح الرؤية 4.3 أميال
سحابات
رياح باردة 42 °F
نقطة الندى 38 °F
الرطوبة 86%
Rainfall 0.00 في
عمق الثلج Not available.
7:04 AM 3:57 PM
الأحدب الأول, 86% visible
METAR LYBE 102000Z 15005KT 7000 NSC 07/03 Q1024 NOSIG
الضغط 30.24 في
وضوح الرؤية 4.3 أميال
سحابات
رياح باردة 42 °F
نقطة الندى 38 °F
الرطوبة 86%
Rainfall 0.00 في
عمق الثلج Not available.
7:04 AM 3:57 PM
الأحدب الأول, 86% visible
METAR LYBE 102000Z 15005KT 7000 NSC 07/03 Q1024 NOSIG

10-Day Weather Forecast

×

Almanac

علم الفلك

Dec. 10, 2016 Rise Set
Actual Time
Civil Twilight
Nautical Twilight
Astronomical Twilight
قمر
Length Of Visible Light
طول الیوم
Tomorrow will be .
, % of the Moon is Illuminated

Today's Extremes

Country Highs Country Lows

Community

WunderPhotos

Upload Photos

1,956,651 photos uploaded!

WunderBlog® & News

Nearby

جودة الهواء

  جودة الهواء AQ Index Pollutant
Not available.

عمق الثلج

Station Depth Elevation

Earthquake Activity

City Distance Mag. Time & Date
Minimum magnitude displayed is 2.5.

Coastal Water Temperatures

مكان درجات الحرارة

Stations

Nearby Weather Stations

Station Location الحرارة رياح باردة نقطة الندى الرطوبة ريح Precip. Elev تحديث Type